Georg Jacob — A8XG5 — position and weather

sailwx.info

Track history (hours):
 
Tides and Currents Weather Stations Pressure Air Temp Water Temp Dewpoint Dewpoint Depression Visibility Wind Speed Wind Dir Waves Ship Positions

Georg Jacob

Last reported at 2017-May-16 01:19 UTC. Time now 2017-May-27 13:49 UTC.
Position N 01°56' E 102°20'.
Warning: this ship's position is 11 days out of date.

Length 229 m; draft 8.5 m.

Type: Ship. MMSI: 636092136.

Date/timePositionNaut miles runAvg speedWind from/ knotsBaromVisibWave heightAir tempDewpointWater temp
2017-May-16 01:19N 01°56' E 102°20'413.4
2017-May-16 01:00N 01°54' E 102°24'714.4
2017-May-16 00:30N 01°51' E 102°30'814.9
2017-May-15 23:59N 01°48' E 102°37'714.9
2017-May-15 23:30N 01°45' E 102°44'4614.8
2017-May-15 20:24N 01°18' E 103°21'614.1
2017-May-15 19:57N 01°14' E 103°26'713.8
2017-May-15 19:29N 01°13' E 103°33'612.9
2017-May-15 19:00N 01°11' E 103°39'612.3
2017-May-15 18:30N 01°08' E 103°44'611.7
2017-May-15 18:00N 01°11' E 103°49'4 7.1
2017-May-15 17:30N 01°14' E 103°47'1 1.3
2017-May-15 16:58N 01°14' E 103°46'0 0.0
2017-May-15 16:28N 01°14' E 103°46'0 0.0
2017-May-15 15:52N 01°14' E 103°46'0 0.0
2017-May-15 15:28N 01°14' E 103°46'0 0.0
2017-May-15 14:58N 01°14' E 103°46'0 0.0
2017-May-15 13:58N 01°14' E 103°46'0 0.0
2017-May-15 13:28N 01°14' E 103°46'0 0.0
2017-May-15 12:58N 01°14' E 103°46'0 0.0
2017-May-15 12:28N 01°14' E 103°46'0 0.0
2017-May-15 11:58N 01°14' E 103°46'0 0.0
2017-May-15 11:28N 01°14' E 103°46'0 0.0
2017-May-15 10:58N 01°14' E 103°46'0 0.0
2017-May-15 10:28N 01°14' E 103°46'0 0.0
2017-May-15 09:58N 01°14' E 103°46'0 0.0
2017-May-15 09:28N 01°14' E 103°46'0 0.0
2017-May-15 08:58N 01°14' E 103°46'0 0.0
2017-May-15 08:28N 01°14' E 103°46'0 0.0
2017-May-15 07:58N 01°14' E 103°46'0 0.0
2017-May-15 07:28N 01°14' E 103°46'0 0.0
2017-May-15 06:43N 01°14' E 103°46'0 0.0
2017-May-15 06:28N 01°14' E 103°46'0 0.0
2017-May-15 05:58N 01°14' E 103°46'0 0.0
2017-May-15 05:25N 01°14' E 103°46'0 0.0
2017-May-15 04:58N 01°14' E 103°46'0 0.0
2017-May-15 04:25N 01°14' E 103°46'0 0.0
2017-May-15 03:55N 01°14' E 103°46'0 0.0
2017-May-15 03:28N 01°14' E 103°46'0 0.0
2017-May-15 02:58N 01°14' E 103°46'0 0.0
2017-May-15 02:28N 01°14' E 103°46'0 0.0
2017-May-15 01:58N 01°14' E 103°46'0 0.0
2017-May-15 01:25N 01°14' E 103°46'0 0.0
2017-May-15 00:58N 01°14' E 103°46'0 0.0
2017-May-15 00:28N 01°14' E 103°46'0 0.0
2017-May-14 23:55N 01°14' E 103°46'0 0.0
2017-May-14 23:28N 01°14' E 103°46'0 0.0
2017-May-14 22:58N 01°14' E 103°46'0 0.0
2017-May-14 22:28N 01°14' E 103°46'0 0.0
2017-May-14 21:55N 01°14' E 103°46'0 0.0
2017-May-14 21:28N 01°14' E 103°46'0 0.0
2017-May-14 20:58N 01°14' E 103°46'0 0.0
2017-May-14 20:25N 01°14' E 103°46'0 0.0
2017-May-14 19:58N 01°14' E 103°46'0 0.0
2017-May-14 19:28N 01°14' E 103°46'0 0.0
2017-May-14 18:58N 01°14' E 103°46'0 0.0
2017-May-14 18:28N 01°14' E 103°46'0 0.0
2017-May-14 17:58N 01°14' E 103°46'0 0.0
2017-May-14 17:28N 01°14' E 103°46'0 0.0
2017-May-14 16:55N 01°14' E 103°46'0 0.0
2017-May-14 16:22N 01°14' E 103°46'0 0.0
2017-May-14 15:58N 01°14' E 103°46'0 0.0
2017-May-14 15:13N 01°14' E 103°46'0 0.0
2017-May-14 14:58N 01°14' E 103°46'0 0.2
2017-May-14 14:30N 01°14' E 103°46'3 2.4
2017-May-14 13:15N 01°13' E 103°49'0 0.4
2017-May-14 13:00N 01°13' E 103°49'0 0.1
2017-May-14 12:30N 01°13' E 103°49'0 0.2
2017-May-14 11:57N 01°13' E 103°49'0 0.4
2017-May-14 11:27N 01°13' E 103°49'0 0.2
2017-May-14 11:00N 01°13' E 103°49'0 0.0
2017-May-14 10:30N 01°13' E 103°49'0 0.2
2017-May-14 10:00N 01°13' E 103°49'2 3.9
2017-May-14 09:30N 01°14' E 103°47'3 6.8
2017-May-14 09:00N 01°16' E 103°45'1 1.4
2017-May-14 08:25N 01°17' E 103°44'0 0.0
2017-May-14 07:58N 01°17' E 103°44'0 0.0
2017-May-14 07:22N 01°17' E 103°44'0 0.0
2017-May-14 06:55N 01°17' E 103°44'0 0.0
2017-May-14 06:25N 01°17' E 103°44'0 0.0
2017-May-14 05:55N 01°17' E 103°44'0 0.0
2017-May-14 05:25N 01°17' E 103°44'0 0.0
2017-May-14 04:58N 01°17' E 103°44'0 0.0
2017-May-14 04:28N 01°17' E 103°44'0 0.0
2017-May-14 03:58N 01°17' E 103°44'0 0.0
2017-May-14 03:28N 01°17' E 103°44'0 0.0
2017-May-14 02:58N 01°17' E 103°44'0 0.0
2017-May-14 02:25N 01°17' E 103°44'0 0.0
2017-May-14 01:58N 01°17' E 103°44'0 0.0
2017-May-14 01:28N 01°17' E 103°44'0 0.0
2017-May-14 00:58N 01°17' E 103°44'0 0.0
2017-May-14 00:28N 01°17' E 103°44'0 0.0
2017-May-13 23:58N 01°17' E 103°44'0 0.0
2017-May-13 23:28N 01°17' E 103°44'0 0.0
2017-May-13 22:58N 01°17' E 103°44'0 0.0
2017-May-13 22:28N 01°17' E 103°44'0 0.0
2017-May-13 21:58N 01°17' E 103°44'0 0.0
2017-May-13 21:28N 01°17' E 103°44'0 0.0
2017-May-13 20:58N 01°17' E 103°44'0 0.0
2017-May-13 20:28N 01°17' E 103°44'0 0.0
2017-May-13 19:58N 01°17' E 103°44'0 0.0
2017-May-13 19:31N 01°17' E 103°44'0 0.0
2017-May-13 18:55N 01°17' E 103°44'0 0.0
2017-May-13 18:25N 01°17' E 103°44'0 0.0
2017-May-13 17:55N 01°17' E 103°44'0 0.0
2017-May-13 17:28N 01°17' E 103°44'0 0.0
2017-May-13 16:58N 01°17' E 103°44'0 0.0
2017-May-13 16:25N 01°17' E 103°44'0 0.0
2017-May-13 15:58N 01°17' E 103°44'0 0.0
2017-May-13 15:28N 01°17' E 103°44'0 0.0
2017-May-13 14:58N 01°17' E 103°44'0 0.0
2017-May-13 14:28N 01°17' E 103°44'0 0.0
2017-May-13 13:22N 01°17' E 103°44'0 0.0
2017-May-13 12:58N 01°17' E 103°44'0 0.0
2017-May-13 12:25N 01°17' E 103°44'0 0.0
2017-May-13 11:58N 01°17' E 103°44'0 0.0
2017-May-13 11:28N 01°17' E 103°44'0 0.0
2017-May-13 10:58N 01°17' E 103°44'0 0.0
2017-May-13 10:28N 01°17' E 103°44'0 0.0
2017-May-13 09:58N 01°17' E 103°44'0 0.0
2017-May-13 09:28N 01°17' E 103°44'0 0.0
2017-May-13 08:58N 01°17' E 103°44'0 0.0
2017-May-13 08:28N 01°17' E 103°44'0 0.0
2017-May-13 07:58N 01°17' E 103°44'0 0.0
2017-May-13 07:28N 01°17' E 103°44'0 0.0
2017-May-13 06:58N 01°17' E 103°44'0 0.0
2017-May-13 06:28N 01°17' E 103°44'0 0.0
2017-May-13 05:58N 01°17' E 103°44'0 0.0
2017-May-13 05:31N 01°17' E 103°44'0 0.0
2017-May-13 04:52N 01°17' E 103°44'0 0.0
2017-May-13 04:31N 01°17' E 103°44'0 0.0
2017-May-13 03:52N 01°17' E 103°44'0 0.0
2017-May-13 03:28N 01°17' E 103°44'0 0.0
2017-May-13 03:01N 01°17' E 103°44'0 0.0
2017-May-13 02:28N 01°17' E 103°44'0 0.0
2017-May-13 01:58N 01°17' E 103°44'0 0.0
2017-May-13 01:28N 01°17' E 103°44'0 0.0
2017-May-13 01:01N 01°17' E 103°44'0 0.0
2017-May-13 00:28N 01°17' E 103°44'0 0.0
2017-May-12 23:58N 01°17' E 103°44'0 0.0
2017-May-12 23:28N 01°17' E 103°44'0 0.0
2017-May-12 22:58N 01°17' E 103°44'0 0.0
2017-May-12 22:28N 01°17' E 103°44'0 0.0
2017-May-12 21:58N 01°17' E 103°44'0 0.0
2017-May-12 21:28N 01°17' E 103°44'0 0.0
2017-May-12 20:58N 01°17' E 103°44'0 0.0
2017-May-12 20:31N 01°17' E 103°44'0 0.0
2017-May-12 19:58N 01°17' E 103°44'0 0.0
2017-May-12 19:28N 01°17' E 103°44'0 0.0
2017-May-12 18:58N 01°17' E 103°44'0 0.0
2017-May-12 18:31N 01°17' E 103°44'0 0.0
2017-May-12 17:58N 01°17' E 103°44'0 0.0
2017-May-12 17:28N 01°17' E 103°44'0 0.0
2017-May-12 16:58N 01°17' E 103°44'0 0.0
2017-May-12 16:28N 01°17' E 103°44'0 0.0
2017-May-12 15:58N 01°17' E 103°44'0 0.0
2017-May-12 15:28N 01°17' E 103°44'0 0.0
2017-May-12 14:58N 01°17' E 103°44'0 0.0
2017-May-12 14:31N 01°17' E 103°44'0 0.0
2017-May-12 13:28N 01°17' E 103°44'0 0.0
2017-May-12 12:55N 01°17' E 103°44'0 0.0
2017-May-12 12:28N 01°17' E 103°44'0 0.0
2017-May-12 11:58N 01°17' E 103°44'0 0.0
2017-May-12 11:28N 01°17' E 103°44'0 0.1
2017-May-12 11:00N 01°17' E 103°44'1 3.0
2017-May-12 10:30N 01°16' E 103°46'3 6.5
2017-May-12 10:00N 01°14' E 103°43'3 4.4
2017-May-12 09:23N 01°12' E 103°41'0 0.1
2017-May-12 08:59N 01°12' E 103°41'1 1.8
2017-May-12 08:31N 01°12' E 103°40'3 6.0
2017-May-12 08:00N 01°12' E 103°37'2 4.4
2017-May-12 07:31N 01°12' E 103°35'3 7.0
2017-May-12 07:01N 01°10' E 103°32'2 4.0
2017-May-12 06:29N 01°10' E 103°30'0 0.8
2017-May-12 06:00N 01°10' E 103°30'1 1.0
2017-May-12 05:30N 01°10' E 103°29'4 1.6
2017-May-12 03:12N 01°13' E 103°32'1 4.7
2017-May-12 02:59N 01°14' E 103°33'3 6.4
2017-May-12 02:31N 01°12' E 103°35'3 6.4
2017-May-12 02:01N 01°12' E 103°39'3 5.6
2017-May-12 01:30N 01°11' E 103°41'1 0.3
2017-May-11 23:20N 01°11' E 103°42'0 0.1
2017-May-11 22:47N 01°11' E 103°42'0 0.0
2017-May-11 22:23N 01°11' E 103°42'0 0.0
2017-May-11 21:59N 01°11' E 103°42'0 0.0
2017-May-11 21:29N 01°11' E 103°42'0 0.0
2017-May-11 20:59N 01°11' E 103°42'0 0.0
2017-May-11 20:23N 01°11' E 103°42'0 0.0
2017-May-11 19:56N 01°11' E 103°42'0 0.0
2017-May-11 19:14N 01°11' E 103°42'0 0.0
2017-May-11 18:50N 01°11' E 103°42'0 0.0
2017-May-11 18:23N 01°11' E 103°42'0 0.0
2017-May-11 17:47N 01°11' E 103°42'0 0.0
2017-May-11 13:35N 01°11' E 103°42'0 0.0
2017-May-11 13:20N 01°11' E 103°42'0 0.0
2017-May-11 11:44N 01°11' E 103°42'0 0.0
2017-May-11 11:29N 01°11' E 103°42'0 0.0
2017-May-11 10:41N 01°11' E 103°42'0 0.0
2017-May-11 10:20N 01°11' E 103°42'0 0.0
2017-May-11 09:59N 01°11' E 103°42'0 0.0
2017-May-11 09:26N 01°11' E 103°42'0 0.0
2017-May-11 08:35N 01°11' E 103°42'0 0.1
2017-May-11 07:05N 01°11' E 103°42'0 0.2
2017-May-11 06:59N 01°11' E 103°42'0 0.0
2017-May-11 02:11N 01°11' E 103°42'0 0.1
2017-May-11 01:44N 01°11' E 103°42'0 0.0
2017-May-11 01:23N 01°11' E 103°42'0 0.2
2017-May-11 00:59N 01°11' E 103°42'0 0.6
2017-May-11 00:30N 01°11' E 103°42'1 2.0
2017-May-11 00:00N 01°11' E 103°41'4 7.0
2017-May-10 23:31N 01°12' E 103°37'2 4.0
2017-May-10 23:00N 01°12' E 103°35'3 6.6
2017-May-10 22:30N 01°12' E 103°32'510.9
2017-May-10 22:00N 01°11' E 103°27'4811.4
2017-May-10 17:46N 01°38' E 102°47'510.4
2017-May-10 17:19N 01°40' E 102°43'510.5
2017-May-10 16:51N 01°42' E 102°38'410.6
2017-May-10 16:27N 01°44' E 102°34'510.6
2017-May-10 16:00N 01°46' E 102°30'611.0
2017-May-10 15:28N 01°49' E 102°25'511.3
2017-May-10 15:00N 01°51' E 102°20'1311.6
2017-May-10 13:55N 01°58' E 102°10'  
Track history (hours):
 
Tides and Currents Weather Stations Pressure Air Temp Water Temp Dewpoint Dewpoint Depression Visibility Wind Speed Wind Dir Waves Ship Positions

Georg Jacob

Last reported at 2017-May-16 01:19 UTC. Time now 2017-May-27 13:49 UTC.
Position N 01°56' E 102°20'.
Warning: this ship's position is 11 days out of date.

Length 229 m; draft 8.5 m.

Type: Ship. MMSI: 636092136.

Date/timePositionNaut miles runAvg speedWind from/ knotsBaromVisibWave heightAir tempDewpointWater temp
2017-May-16 01:19N 01°56' E 102°20'413.4
2017-May-16 01:00N 01°54' E 102°24'714.4
2017-May-16 00:30N 01°51' E 102°30'814.9
2017-May-15 23:59N 01°48' E 102°37'714.9
2017-May-15 23:30N 01°45' E 102°44'4614.8
2017-May-15 20:24N 01°18' E 103°21'614.1
2017-May-15 19:57N 01°14' E 103°26'713.8
2017-May-15 19:29N 01°13' E 103°33'612.9
2017-May-15 19:00N 01°11' E 103°39'612.3
2017-May-15 18:30N 01°08' E 103°44'611.7
2017-May-15 18:00N 01°11' E 103°49'4 7.1
2017-May-15 17:30N 01°14' E 103°47'1 1.3
2017-May-15 16:58N 01°14' E 103°46'0 0.0
2017-May-15 16:28N 01°14' E 103°46'0 0.0
2017-May-15 15:52N 01°14' E 103°46'0 0.0
2017-May-15 15:28N 01°14' E 103°46'0 0.0
2017-May-15 14:58N 01°14' E 103°46'0 0.0
2017-May-15 13:58N 01°14' E 103°46'0 0.0
2017-May-15 13:28N 01°14' E 103°46'0 0.0
2017-May-15 12:58N 01°14' E 103°46'0 0.0
2017-May-15 12:28N 01°14' E 103°46'0 0.0
2017-May-15 11:58N 01°14' E 103°46'0 0.0
2017-May-15 11:28N 01°14' E 103°46'0 0.0
2017-May-15 10:58N 01°14' E 103°46'0 0.0
2017-May-15 10:28N 01°14' E 103°46'0 0.0
2017-May-15 09:58N 01°14' E 103°46'0 0.0
2017-May-15 09:28N 01°14' E 103°46'0 0.0
2017-May-15 08:58N 01°14' E 103°46'0 0.0
2017-May-15 08:28N 01°14' E 103°46'0 0.0
2017-May-15 07:58N 01°14' E 103°46'0 0.0
2017-May-15 07:28N 01°14' E 103°46'0 0.0
2017-May-15 06:43N 01°14' E 103°46'0 0.0
2017-May-15 06:28N 01°14' E 103°46'0 0.0
2017-May-15 05:58N 01°14' E 103°46'0 0.0
2017-May-15 05:25N 01°14' E 103°46'0 0.0
2017-May-15 04:58N 01°14' E 103°46'0 0.0
2017-May-15 04:25N 01°14' E 103°46'0 0.0
2017-May-15 03:55N 01°14' E 103°46'0 0.0
2017-May-15 03:28N 01°14' E 103°46'0 0.0
2017-May-15 02:58N 01°14' E 103°46'0 0.0
2017-May-15 02:28N 01°14' E 103°46'0 0.0
2017-May-15 01:58N 01°14' E 103°46'0 0.0
2017-May-15 01:25N 01°14' E 103°46'0 0.0
2017-May-15 00:58N 01°14' E 103°46'0 0.0
2017-May-15 00:28N 01°14' E 103°46'0 0.0
2017-May-14 23:55N 01°14' E 103°46'0 0.0
2017-May-14 23:28N 01°14' E 103°46'0 0.0
2017-May-14 22:58N 01°14' E 103°46'0 0.0
2017-May-14 22:28N 01°14' E 103°46'0 0.0
2017-May-14 21:55N 01°14' E 103°46'0 0.0
2017-May-14 21:28N 01°14' E 103°46'0 0.0
2017-May-14 20:58N 01°14' E 103°46'0 0.0
2017-May-14 20:25N 01°14' E 103°46'0 0.0
2017-May-14 19:58N 01°14' E 103°46'0 0.0
2017-May-14 19:28N 01°14' E 103°46'0 0.0
2017-May-14 18:58N 01°14' E 103°46'0 0.0
2017-May-14 18:28N 01°14' E 103°46'0 0.0
2017-May-14 17:58N 01°14' E 103°46'0 0.0
2017-May-14 17:28N 01°14' E 103°46'0 0.0
2017-May-14 16:55N 01°14' E 103°46'0 0.0
2017-May-14 16:22N 01°14' E 103°46'0 0.0
2017-May-14 15:58N 01°14' E 103°46'0 0.0
2017-May-14 15:13N 01°14' E 103°46'0 0.0
2017-May-14 14:58N 01°14' E 103°46'0 0.2
2017-May-14 14:30N 01°14' E 103°46'3 2.4
2017-May-14 13:15N 01°13' E 103°49'0 0.4
2017-May-14 13:00N 01°13' E 103°49'0 0.1
2017-May-14 12:30N 01°13' E 103°49'0 0.2
2017-May-14 11:57N 01°13' E 103°49'0 0.4
2017-May-14 11:27N 01°13' E 103°49'0 0.2
2017-May-14 11:00N 01°13' E 103°49'0 0.0
2017-May-14 10:30N 01°13' E 103°49'0 0.2
2017-May-14 10:00N 01°13' E 103°49'2 3.9
2017-May-14 09:30N 01°14' E 103°47'3 6.8
2017-May-14 09:00N 01°16' E 103°45'1 1.4
2017-May-14 08:25N 01°17' E 103°44'0 0.0
2017-May-14 07:58N 01°17' E 103°44'0 0.0
2017-May-14 07:22N 01°17' E 103°44'0 0.0
2017-May-14 06:55N 01°17' E 103°44'0 0.0
2017-May-14 06:25N 01°17' E 103°44'0 0.0
2017-May-14 05:55N 01°17' E 103°44'0 0.0
2017-May-14 05:25N 01°17' E 103°44'0 0.0
2017-May-14 04:58N 01°17' E 103°44'0 0.0
2017-May-14 04:28N 01°17' E 103°44'0 0.0
2017-May-14 03:58N 01°17' E 103°44'0 0.0
2017-May-14 03:28N 01°17' E 103°44'0 0.0
2017-May-14 02:58N 01°17' E 103°44'0 0.0
2017-May-14 02:25N 01°17' E 103°44'0 0.0
2017-May-14 01:58N 01°17' E 103°44'0 0.0
2017-May-14 01:28N 01°17' E 103°44'0 0.0
2017-May-14 00:58N 01°17' E 103°44'0 0.0
2017-May-14 00:28N 01°17' E 103°44'0 0.0
2017-May-13 23:58N 01°17' E 103°44'0 0.0
2017-May-13 23:28N 01°17' E 103°44'0 0.0
2017-May-13 22:58N 01°17' E 103°44'0 0.0
2017-May-13 22:28N 01°17' E 103°44'0 0.0
2017-May-13 21:58N 01°17' E 103°44'0 0.0
2017-May-13 21:28N 01°17' E 103°44'0 0.0
2017-May-13 20:58N 01°17' E 103°44'0 0.0
2017-May-13 20:28N 01°17' E 103°44'0 0.0
2017-May-13 19:58N 01°17' E 103°44'0 0.0
2017-May-13 19:31N 01°17' E 103°44'0 0.0
2017-May-13 18:55N 01°17' E 103°44'0 0.0
2017-May-13 18:25N 01°17' E 103°44'0 0.0
2017-May-13 17:55N 01°17' E 103°44'0 0.0
2017-May-13 17:28N 01°17' E 103°44'0 0.0
2017-May-13 16:58N 01°17' E 103°44'0 0.0
2017-May-13 16:25N 01°17' E 103°44'0 0.0
2017-May-13 15:58N 01°17' E 103°44'0 0.0
2017-May-13 15:28N 01°17' E 103°44'0 0.0
2017-May-13 14:58N 01°17' E 103°44'0 0.0
2017-May-13 14:28N 01°17' E 103°44'0 0.0
2017-May-13 13:22N 01°17' E 103°44'0 0.0
2017-May-13 12:58N 01°17' E 103°44'0 0.0
2017-May-13 12:25N 01°17' E 103°44'0 0.0
2017-May-13 11:58N 01°17' E 103°44'0 0.0
2017-May-13 11:28N 01°17' E 103°44'0 0.0
2017-May-13 10:58N 01°17' E 103°44'0 0.0
2017-May-13 10:28N 01°17' E 103°44'0 0.0
2017-May-13 09:58N 01°17' E 103°44'0 0.0
2017-May-13 09:28N 01°17' E 103°44'0 0.0
2017-May-13 08:58N 01°17' E 103°44'0 0.0
2017-May-13 08:28N 01°17' E 103°44'0 0.0
2017-May-13 07:58N 01°17' E 103°44'0 0.0
2017-May-13 07:28N 01°17' E 103°44'0 0.0
2017-May-13 06:58N 01°17' E 103°44'0 0.0
2017-May-13 06:28N 01°17' E 103°44'0 0.0
2017-May-13 05:58N 01°17' E 103°44'0 0.0
2017-May-13 05:31N 01°17' E 103°44'0 0.0
2017-May-13 04:52N 01°17' E 103°44'0 0.0
2017-May-13 04:31N 01°17' E 103°44'0 0.0
2017-May-13 03:52N 01°17' E 103°44'0 0.0
2017-May-13 03:28N 01°17' E 103°44'0 0.0
2017-May-13 03:01N 01°17' E 103°44'0 0.0
2017-May-13 02:28N 01°17' E 103°44'0 0.0
2017-May-13 01:58N 01°17' E 103°44'0 0.0
2017-May-13 01:28N 01°17' E 103°44'0 0.0
2017-May-13 01:01N 01°17' E 103°44'0 0.0
2017-May-13 00:28N 01°17' E 103°44'0 0.0
2017-May-12 23:58N 01°17' E 103°44'0 0.0
2017-May-12 23:28N 01°17' E 103°44'0 0.0
2017-May-12 22:58N 01°17' E 103°44'0 0.0
2017-May-12 22:28N 01°17' E 103°44'0 0.0
2017-May-12 21:58N 01°17' E 103°44'0 0.0
2017-May-12 21:28N 01°17' E 103°44'0 0.0
2017-May-12 20:58N 01°17' E 103°44'0 0.0
2017-May-12 20:31N 01°17' E 103°44'0 0.0
2017-May-12 19:58N 01°17' E 103°44'0 0.0
2017-May-12 19:28N 01°17' E 103°44'0 0.0
2017-May-12 18:58N 01°17' E 103°44'0 0.0
2017-May-12 18:31N 01°17' E 103°44'0 0.0
2017-May-12 17:58N 01°17' E 103°44'0 0.0
2017-May-12 17:28N 01°17' E 103°44'0 0.0
2017-May-12 16:58N 01°17' E 103°44'0 0.0
2017-May-12 16:28N 01°17' E 103°44'0 0.0
2017-May-12 15:58N 01°17' E 103°44'0 0.0
2017-May-12 15:28N 01°17' E 103°44'0 0.0
2017-May-12 14:58N 01°17' E 103°44'0 0.0
2017-May-12 14:31N 01°17' E 103°44'0 0.0
2017-May-12 13:28N 01°17' E 103°44'0 0.0
2017-May-12 12:55N 01°17' E 103°44'0 0.0
2017-May-12 12:28N 01°17' E 103°44'0 0.0
2017-May-12 11:58N 01°17' E 103°44'0 0.0
2017-May-12 11:28N 01°17' E 103°44'0 0.1
2017-May-12 11:00N 01°17' E 103°44'1 3.0
2017-May-12 10:30N 01°16' E 103°46'3 6.5
2017-May-12 10:00N 01°14' E 103°43'3 4.4
2017-May-12 09:23N 01°12' E 103°41'0 0.1
2017-May-12 08:59N 01°12' E 103°41'1 1.8
2017-May-12 08:31N 01°12' E 103°40'3 6.0
2017-May-12 08:00N 01°12' E 103°37'2 4.4
2017-May-12 07:31N 01°12' E 103°35'3 7.0
2017-May-12 07:01N 01°10' E 103°32'2 4.0
2017-May-12 06:29N 01°10' E 103°30'0 0.8
2017-May-12 06:00N 01°10' E 103°30'1 1.0
2017-May-12 05:30N 01°10' E 103°29'4 1.6
2017-May-12 03:12N 01°13' E 103°32'1 4.7
2017-May-12 02:59N 01°14' E 103°33'3 6.4
2017-May-12 02:31N 01°12' E 103°35'3 6.4
2017-May-12 02:01N 01°12' E 103°39'3 5.6
2017-May-12 01:30N 01°11' E 103°41'1 0.3
2017-May-11 23:20N 01°11' E 103°42'0 0.1
2017-May-11 22:47N 01°11' E 103°42'0 0.0
2017-May-11 22:23N 01°11' E 103°42'0 0.0
2017-May-11 21:59N 01°11' E 103°42'0 0.0
2017-May-11 21:29N 01°11' E 103°42'0 0.0
2017-May-11 20:59N 01°11' E 103°42'0 0.0
2017-May-11 20:23N 01°11' E 103°42'0 0.0
2017-May-11 19:56N 01°11' E 103°42'0 0.0
2017-May-11 19:14N 01°11' E 103°42'0 0.0
2017-May-11 18:50N 01°11' E 103°42'0 0.0
2017-May-11 18:23N 01°11' E 103°42'0 0.0
2017-May-11 17:47N 01°11' E 103°42'0 0.0
2017-May-11 13:35N 01°11' E 103°42'0 0.0
2017-May-11 13:20N 01°11' E 103°42'0 0.0
2017-May-11 11:44N 01°11' E 103°42'0 0.0
2017-May-11 11:29N 01°11' E 103°42'0 0.0
2017-May-11 10:41N 01°11' E 103°42'0 0.0
2017-May-11 10:20N 01°11' E 103°42'0 0.0
2017-May-11 09:59N 01°11' E 103°42'0 0.0
2017-May-11 09:26N 01°11' E 103°42'0 0.0
2017-May-11 08:35N 01°11' E 103°42'0 0.1
2017-May-11 07:05N 01°11' E 103°42'0 0.2
2017-May-11 06:59N 01°11' E 103°42'0 0.0
2017-May-11 02:11N 01°11' E 103°42'0 0.1
2017-May-11 01:44N 01°11' E 103°42'0 0.0
2017-May-11 01:23N 01°11' E 103°42'0 0.2
2017-May-11 00:59N 01°11' E 103°42'0 0.6
2017-May-11 00:30N 01°11' E 103°42'1 2.0
2017-May-11 00:00N 01°11' E 103°41'4 7.0
2017-May-10 23:31N 01°12' E 103°37'2 4.0
2017-May-10 23:00N 01°12' E 103°35'3 6.6
2017-May-10 22:30N 01°12' E 103°32'510.9
2017-May-10 22:00N 01°11' E 103°27'4811.4
2017-May-10 17:46N 01°38' E 102°47'510.4
2017-May-10 17:19N 01°40' E 102°43'510.5
2017-May-10 16:51N 01°42' E 102°38'410.6
2017-May-10 16:27N 01°44' E 102°34'510.6
2017-May-10 16:00N 01°46' E 102°30'611.0
2017-May-10 15:28N 01°49' E 102°25'511.3
2017-May-10 15:00N 01°51' E 102°20'1311.6
2017-May-10 13:55N 01°58' E 102°10'  

Dump ship's entire track history